Detalii statie TRANSAVIA REDIU [0000197C]

Toti senzorii

Date Temperatura solului [C]Precipitatii [mm]Voltaj baterie [mV]Leaf Wetness [Min]HC Air temperature [C]HC Relative humidity [%]Punctul de roua [C]
medieminmaxsumaultimatimpmedieminmaxmediemediemin
2020-06-02 08:00:00 0 6864 8.2 7.34 9.31 97.17 7.6 7.3
2020-06-02 09:00:00 0 6992 9.57 8.32 10.82 87.87 7.5 7.1
2020-06-02 10:00:00 0 7098 10.61 10.03 11.75 82.1 7.5 7
2020-06-02 11:00:00 0 7088 11.56 10.46 12.78 77.16 7.5 7.1
2020-06-02 12:00:00 0 7108 13.21 12.7 13.56 64.19 6.4 4.9
2020-06-02 13:00:00 0 7108 13.77 12.61 14.49 56.06 5 4.1
2020-06-02 14:00:00 0 7108 14.01 12.86 15.31 50.86 3.8 2.8
2020-06-02 15:00:00 0 7108 14.71 13.73 15.32 49.97 4.2 3.3
2020-06-02 16:00:00 0 7108 14.65 13.26 16.28 49.26 3.9 3.2
2020-06-02 17:00:00 0 7108 14.69 13.33 15.53 48.07 3.6 3
2020-06-02 18:00:00 0 7118 14.28 13.23 15.35 46.64 2.8 1.9
2020-06-02 19:00:00 0 7108 13.79 12.94 14.86 50.67 3.5 2.3
2020-06-02 20:00:00 0 7088 12.89 11.7 13.59 55.53 4 3.1
2020-06-02 21:00:00 0 6834 11.03 10.56 11.35 63.85 4.3 3.9
2020-06-02 22:00:00 0 6776 9.84 8.47 10.68 68.61 4.1 3.6
2020-06-02 23:00:00 0 6748 9.24 8.66 9.65 77.14 5.3 4.9
2020-06-03 00:00:00 0 6748 7.99 7.53 8.64 84.53 5.4 5.1
2020-06-03 01:00:00 0 6718 8.66 8.34 9 72 0
2020-06-03 02:00:00 0 6708 8.45 7.59 9.13 81.47 5.2 4.3
2020-06-03 03:00:00 0 6708 7.46 7.26 7.59 92.75 6.2 5.8
2020-06-03 04:00:00 0 6698 7.79 7.24 8.26 86.59 5.5 4.8
2020-06-03 05:00:00 0 6708 8.01 7.68 8.3 89.06 6.1 5.3
2020-06-03 06:00:00 0 6708 7.57 7.18 7.86 99.24 7.3 7.1
2020-06-03 07:00:00 0 6738 6.91 6.23 8.47 100 6.8 6.2
2020-06-03 08:00:00 0 6796 11.05 9.22 12.89 77.54 7 6.3
2020-06-03 09:00:00 0 6894 12.45 11.5 13.79 72.96 7.5 6
2020-06-03 10:00:00 0 6942 11.32 10.6 12.72 78.84 7.6 7.2
2020-06-03 11:00:00 0 7088 12.05 10.67 13.79 77.43 8 7.6
2020-06-03 12:00:00 0 7108 13.49 12.53 14.44 69.91 7.9 7.2
2020-06-03 13:00:00 0 6914 12.63 10.32 14.09 72 7.5 6.5
2020-06-03 14:00:00 0.2 7108 11.34 9.98 13.51 84.39 8.6 7.6
2020-06-03 15:00:00 0 7108 13.56 13.11 14.41 66.91 7.3 6.6
2020-06-03 16:00:00 0 7118 12.5 11.68 13.9 74.83 7.9 6.9
2020-06-03 17:00:00 0 7118 14.23 13.51 14.95 66.79 8 6.9
2020-06-03 18:00:00 0 6942 14.07 13.78 14.79 65.14 7.4 7.1
2020-06-03 19:00:00 1 6844 9.95 8.61 13.78 90.19 8.1 6.8
2020-06-03 20:00:00 0 7088 9.05 8.68 9.56 100 9 8.6
2020-06-03 21:00:00 0 6864 8.69 7.75 9.38 100 8.6 7.7
2020-06-03 22:00:00 0 6766 6.71 6.15 7.66 100 6.6 6.1
2020-06-03 23:00:00 0 6748 6.03 5.76 6.25 100 5.9 5.7
2020-06-04 00:00:00 0.2 6728 -3.24 5.97 91.66 0
2020-06-04 01:00:00 0 6708 5.45 4.97 5.98 100 5.4 4.9
2020-06-04 02:00:00 0 6698 6.57 6.1 7 100 6.5 6.1
2020-06-04 03:00:00 0 6698 6.76 6.57 6.88 100 6.7 6.5
2020-06-04 04:00:00 0 6688 6.68 6.51 6.98 100 6.6 6.5
2020-06-04 05:00:00 0 6698 7.09 7 7.17 100 7 7
2020-06-04 06:00:00 0 6688 7.29 7.1 7.44 100 7.2 7.1
2020-06-04 07:00:00 0 6756 7.15 6.48 8.53 100 7.1 6.4